sensor_id;sensor_type;location;lat;lon;timestamp;P1;durP1;ratioP1;P2;durP2;ratioP2
13291;SDS011;6714;53.056;8.690;2022-12-07T00:02:37;7.37;;;6.17;;
13291;SDS011;6714;53.056;8.690;2022-12-07T00:05:19;10.17;;;7.50;;
13291;SDS011;6714;53.056;8.690;2022-12-07T00:08:01;7.23;;;5.30;;
13291;SDS011;6714;53.056;8.690;2022-12-07T00:10:44;9.63;;;7.73;;
13291;SDS011;6714;53.056;8.690;2022-12-07T00:13:26;6.17;;;4.77;;
13291;SDS011;6714;53.056;8.690;2022-12-07T00:16:09;9.13;;;6.97;;
13291;SDS011;6714;53.056;8.690;2022-12-07T00:18:53;6.93;;;5.53;;
13291;SDS011;6714;53.056;8.690;2022-12-07T00:21:35;9.27;;;6.67;;
13291;SDS011;6714;53.056;8.690;2022-12-07T00:24:18;7.23;;;6.23;;
13291;SDS011;6714;53.056;8.690;2022-12-07T00:27:01;5.77;;;5.03;;
13291;SDS011;6714;53.056;8.690;2022-12-07T00:29:43;7.27;;;5.60;;
13291;SDS011;6714;53.056;8.690;2022-12-07T00:32:25;5.27;;;4.53;;
13291;SDS011;6714;53.056;8.690;2022-12-07T00:35:09;7.63;;;5.70;;
13291;SDS011;6714;53.056;8.690;2022-12-07T00:37:51;7.57;;;6.43;;
13291;SDS011;6714;53.056;8.690;2022-12-07T00:40:33;9.67;;;7.00;;
13291;SDS011;6714;53.056;8.690;2022-12-07T00:43:16;11.67;;;7.70;;
13291;SDS011;6714;53.056;8.690;2022-12-07T00:45:58;5.53;;;4.93;;
13291;SDS011;6714;53.056;8.690;2022-12-07T00:48:40;10.77;;;6.90;;
13291;SDS011;6714;53.056;8.690;2022-12-07T00:51:24;4.83;;;4.20;;
13291;SDS011;6714;53.056;8.690;2022-12-07T00:54:06;5.20;;;4.43;;
13291;SDS011;6714;53.056;8.690;2022-12-07T00:56:49;7.03;;;5.17;;
13291;SDS011;6714;53.056;8.690;2022-12-07T00:59:31;8.03;;;5.70;;
13291;SDS011;6714;53.056;8.690;2022-12-07T01:02:13;13.07;;;6.57;;
13291;SDS011;6714;53.056;8.690;2022-12-07T01:04:55;9.10;;;6.07;;
13291;SDS011;6714;53.056;8.690;2022-12-07T01:07:39;4.80;;;4.10;;
13291;SDS011;6714;53.056;8.690;2022-12-07T01:10:21;5.87;;;4.27;;
13291;SDS011;6714;53.056;8.690;2022-12-07T01:13:03;6.87;;;5.00;;
13291;SDS011;6714;53.056;8.690;2022-12-07T01:15:46;8.40;;;5.33;;
13291;SDS011;6714;53.056;8.690;2022-12-07T01:18:28;9.30;;;5.00;;
13291;SDS011;6714;53.056;8.690;2022-12-07T01:21:11;5.10;;;4.33;;
13291;SDS011;6714;53.056;8.690;2022-12-07T01:23:56;6.87;;;4.53;;
13291;SDS011;6714;53.056;8.690;2022-12-07T01:26:38;5.07;;;4.23;;
13291;SDS011;6714;53.056;8.690;2022-12-07T01:29:21;6.67;;;4.40;;
13291;SDS011;6714;53.056;8.690;2022-12-07T01:32:03;5.17;;;3.80;;
13291;SDS011;6714;53.056;8.690;2022-12-07T01:34:47;5.97;;;3.70;;
13291;SDS011;6714;53.056;8.690;2022-12-07T01:37:33;4.43;;;3.87;;
13291;SDS011;6714;53.056;8.690;2022-12-07T01:40:17;5.43;;;3.77;;
13291;SDS011;6714;53.056;8.690;2022-12-07T01:42:59;5.53;;;3.90;;
13291;SDS011;6714;53.056;8.690;2022-12-07T01:45:41;7.30;;;4.37;;
13291;SDS011;6714;53.056;8.690;2022-12-07T01:48:25;6.53;;;4.30;;
13291;SDS011;6714;53.056;8.690;2022-12-07T01:51:08;6.40;;;3.63;;
13291;SDS011;6714;53.056;8.690;2022-12-07T01:53:51;6.23;;;3.50;;
13291;SDS011;6714;53.056;8.690;2022-12-07T01:56:36;5.30;;;4.37;;
13291;SDS011;6714;53.056;8.690;2022-12-07T01:59:19;4.57;;;3.10;;
13291;SDS011;6714;53.056;8.690;2022-12-07T02:02:05;5.57;;;4.37;;
13291;SDS011;6714;53.056;8.690;2022-12-07T02:04:50;7.40;;;4.37;;
13291;SDS011;6714;53.056;8.690;2022-12-07T02:07:32;4.53;;;3.73;;
13291;SDS011;6714;53.056;8.690;2022-12-07T02:10:17;4.63;;;3.27;;
13291;SDS011;6714;53.056;8.690;2022-12-07T02:13:02;7.53;;;5.13;;
13291;SDS011;6714;53.056;8.690;2022-12-07T02:15:50;9.90;;;4.83;;
13291;SDS011;6714;53.056;8.690;2022-12-07T02:18:38;6.20;;;3.23;;
13291;SDS011;6714;53.056;8.690;2022-12-07T02:21:26;6.13;;;4.50;;
13291;SDS011;6714;53.056;8.690;2022-12-07T02:24:15;8.83;;;4.60;;
13291;SDS011;6714;53.056;8.690;2022-12-07T02:27:24;6.80;;;4.33;;
13291;SDS011;6714;53.056;8.690;2022-12-07T02:30:09;8.27;;;4.83;;
13291;SDS011;6714;53.056;8.690;2022-12-07T02:32:54;8.10;;;4.67;;
13291;SDS011;6714;53.056;8.690;2022-12-07T02:35:39;5.10;;;3.30;;
13291;SDS011;6714;53.056;8.690;2022-12-07T02:38:24;7.43;;;4.47;;
13291;SDS011;6714;53.056;8.690;2022-12-07T02:41:09;5.17;;;3.90;;
13291;SDS011;6714;53.056;8.690;2022-12-07T02:43:52;9.70;;;5.10;;
13291;SDS011;6714;53.056;8.690;2022-12-07T02:46:38;8.37;;;4.00;;
13291;SDS011;6714;53.056;8.690;2022-12-07T02:49:22;3.93;;;3.03;;
13291;SDS011;6714;53.056;8.690;2022-12-07T02:52:05;4.77;;;3.33;;
13291;SDS011;6714;53.056;8.690;2022-12-07T02:54:48;6.27;;;3.70;;
13291;SDS011;6714;53.056;8.690;2022-12-07T02:57:34;7.27;;;5.27;;
13291;SDS011;6714;53.056;8.690;2022-12-07T03:00:20;5.87;;;4.17;;
13291;SDS011;6714;53.056;8.690;2022-12-07T03:03:06;5.97;;;3.63;;
13291;SDS011;6714;53.056;8.690;2022-12-07T03:05:54;4.83;;;3.37;;
13291;SDS011;6714;53.056;8.690;2022-12-07T03:08:44;5.27;;;3.27;;
13291;SDS011;6714;53.056;8.690;2022-12-07T03:11:29;5.60;;;3.50;;
13291;SDS011;6714;53.056;8.690;2022-12-07T03:14:15;5.00;;;3.17;;
13291;SDS011;6714;53.056;8.690;2022-12-07T03:17:00;6.63;;;3.20;;
13291;SDS011;6714;53.056;8.690;2022-12-07T03:19:45;3.83;;;2.73;;
13291;SDS011;6714;53.056;8.690;2022-12-07T03:22:28;4.40;;;2.60;;
13291;SDS011;6714;53.056;8.690;2022-12-07T03:25:11;7.53;;;2.50;;
13291;SDS011;6714;53.056;8.690;2022-12-07T03:27:56;4.23;;;2.60;;
13291;SDS011;6714;53.056;8.690;2022-12-07T03:30:39;5.30;;;2.67;;
13291;SDS011;6714;53.056;8.690;2022-12-07T03:33:24;4.07;;;2.50;;
13291;SDS011;6714;53.056;8.690;2022-12-07T03:36:10;5.30;;;3.10;;
13291;SDS011;6714;53.056;8.690;2022-12-07T03:38:54;4.73;;;2.87;;
13291;SDS011;6714;53.056;8.690;2022-12-07T03:41:39;4.47;;;2.83;;
13291;SDS011;6714;53.056;8.690;2022-12-07T03:44:21;4.70;;;3.27;;
13291;SDS011;6714;53.056;8.690;2022-12-07T03:47:05;4.83;;;3.30;;
13291;SDS011;6714;53.056;8.690;2022-12-07T03:49:48;5.80;;;3.60;;
13291;SDS011;6714;53.056;8.690;2022-12-07T03:52:33;7.03;;;4.50;;
13291;SDS011;6714;53.056;8.690;2022-12-07T03:55:18;7.20;;;4.37;;
13291;SDS011;6714;53.056;8.690;2022-12-07T03:58:03;6.67;;;4.10;;
13291;SDS011;6714;53.056;8.690;2022-12-07T04:00:45;3.53;;;2.80;;
13291;SDS011;6714;53.056;8.690;2022-12-07T04:03:28;5.30;;;3.37;;
13291;SDS011;6714;53.056;8.690;2022-12-07T04:06:10;7.63;;;4.67;;
13291;SDS011;6714;53.056;8.690;2022-12-07T04:08:53;6.80;;;4.77;;
13291;SDS011;6714;53.056;8.690;2022-12-07T04:11:36;4.70;;;3.37;;
13291;SDS011;6714;53.056;8.690;2022-12-07T04:14:18;6.27;;;4.10;;
13291;SDS011;6714;53.056;8.690;2022-12-07T04:17:00;7.37;;;4.00;;
13291;SDS011;6714;53.056;8.690;2022-12-07T04:19:42;8.40;;;4.83;;
13291;SDS011;6714;53.056;8.690;2022-12-07T04:22:24;6.27;;;4.00;;
13291;SDS011;6714;53.056;8.690;2022-12-07T04:25:08;4.63;;;3.53;;
13291;SDS011;6714;53.056;8.690;2022-12-07T04:27:50;5.20;;;2.93;;
13291;SDS011;6714;53.056;8.690;2022-12-07T04:30:33;10.57;;;5.90;;
13291;SDS011;6714;53.056;8.690;2022-12-07T04:33:15;6.80;;;3.17;;
13291;SDS011;6714;53.056;8.690;2022-12-07T04:35:57;4.53;;;2.30;;
13291;SDS011;6714;53.056;8.690;2022-12-07T04:38:39;6.53;;;4.20;;
13291;SDS011;6714;53.056;8.690;2022-12-07T04:41:23;7.63;;;3.00;;
13291;SDS011;6714;53.056;8.690;2022-12-07T04:44:08;5.27;;;4.20;;
13291;SDS011;6714;53.056;8.690;2022-12-07T04:46:50;6.03;;;3.57;;
13291;SDS011;6714;53.056;8.690;2022-12-07T04:49:32;4.23;;;3.20;;
13291;SDS011;6714;53.056;8.690;2022-12-07T04:52:15;7.60;;;3.80;;
13291;SDS011;6714;53.056;8.690;2022-12-07T04:54:57;3.00;;;2.50;;
13291;SDS011;6714;53.056;8.690;2022-12-07T04:57:40;3.73;;;2.87;;
13291;SDS011;6714;53.056;8.690;2022-12-07T05:00:24;3.00;;;2.50;;
13291;SDS011;6714;53.056;8.690;2022-12-07T05:03:06;5.93;;;3.93;;
13291;SDS011;6714;53.056;8.690;2022-12-07T05:05:48;3.30;;;2.37;;
13291;SDS011;6714;53.056;8.690;2022-12-07T05:08:31;5.73;;;3.00;;
13291;SDS011;6714;53.056;8.690;2022-12-07T05:11:14;3.83;;;3.30;;
13291;SDS011;6714;53.056;8.690;2022-12-07T05:14:13;4.20;;;2.57;;
13291;SDS011;6714;53.056;8.690;2022-12-07T05:16:55;3.07;;;2.60;;
13291;SDS011;6714;53.056;8.690;2022-12-07T05:19:38;4.57;;;2.33;;
13291;SDS011;6714;53.056;8.690;2022-12-07T05:22:20;3.27;;;2.37;;
13291;SDS011;6714;53.056;8.690;2022-12-07T05:25:02;3.70;;;2.50;;
13291;SDS011;6714;53.056;8.690;2022-12-07T05:27:44;3.13;;;2.27;;
13291;SDS011;6714;53.056;8.690;2022-12-07T05:30:28;2.60;;;2.20;;
13291;SDS011;6714;53.056;8.690;2022-12-07T05:33:10;5.27;;;2.20;;
13291;SDS011;6714;53.056;8.690;2022-12-07T05:35:53;3.27;;;2.27;;
13291;SDS011;6714;53.056;8.690;2022-12-07T05:38:35;2.53;;;2.03;;
13291;SDS011;6714;53.056;8.690;2022-12-07T05:41:17;2.47;;;2.23;;
13291;SDS011;6714;53.056;8.690;2022-12-07T05:44:17;4.43;;;2.20;;
13291;SDS011;6714;53.056;8.690;2022-12-07T05:47:01;4.13;;;2.20;;
13291;SDS011;6714;53.056;8.690;2022-12-07T05:49:43;3.37;;;2.10;;
13291;SDS011;6714;53.056;8.690;2022-12-07T05:52:25;3.77;;;2.03;;
13291;SDS011;6714;53.056;8.690;2022-12-07T05:55:08;2.70;;;1.93;;
13291;SDS011;6714;53.056;8.690;2022-12-07T05:57:50;5.00;;;2.40;;
13291;SDS011;6714;53.056;8.690;2022-12-07T06:00:46;3.57;;;1.83;;
13291;SDS011;6714;53.056;8.690;2022-12-07T06:03:30;2.00;;;1.67;;
13291;SDS011;6714;53.056;8.690;2022-12-07T06:06:12;5.30;;;2.40;;
13291;SDS011;6714;53.056;8.690;2022-12-07T06:08:54;7.17;;;2.13;;
13291;SDS011;6714;53.056;8.690;2022-12-07T06:11:36;4.23;;;1.93;;
13291;SDS011;6714;53.056;8.690;2022-12-07T06:14:36;4.83;;;1.90;;
13291;SDS011;6714;53.056;8.690;2022-12-07T06:17:18;4.47;;;2.33;;
13291;SDS011;6714;53.056;8.690;2022-12-07T06:20:02;5.13;;;2.50;;
13291;SDS011;6714;53.056;8.690;2022-12-07T06:22:45;2.83;;;1.83;;
13291;SDS011;6714;53.056;8.690;2022-12-07T06:25:27;7.40;;;3.20;;
13291;SDS011;6714;53.056;8.690;2022-12-07T06:28:10;3.63;;;2.27;;
13291;SDS011;6714;53.056;8.690;2022-12-07T06:30:56;4.90;;;2.60;;
13291;SDS011;6714;53.056;8.690;2022-12-07T06:33:39;5.30;;;2.30;;
13291;SDS011;6714;53.056;8.690;2022-12-07T06:36:22;8.83;;;2.40;;
13291;SDS011;6714;53.056;8.690;2022-12-07T06:39:05;2.33;;;2.10;;
13291;SDS011;6714;53.056;8.690;2022-12-07T06:41:49;6.97;;;2.00;;
13291;SDS011;6714;53.056;8.690;2022-12-07T06:44:31;7.23;;;2.17;;
13291;SDS011;6714;53.056;8.690;2022-12-07T06:47:14;5.77;;;1.70;;
13291;SDS011;6714;53.056;8.690;2022-12-07T06:49:56;4.17;;;1.83;;
13291;SDS011;6714;53.056;8.690;2022-12-07T06:52:39;3.53;;;1.70;;
13291;SDS011;6714;53.056;8.690;2022-12-07T06:55:21;2.40;;;1.60;;
13291;SDS011;6714;53.056;8.690;2022-12-07T06:58:04;3.73;;;1.50;;
13291;SDS011;6714;53.056;8.690;2022-12-07T07:00:47;2.60;;;1.70;;
13291;SDS011;6714;53.056;8.690;2022-12-07T07:03:30;7.10;;;1.80;;
13291;SDS011;6714;53.056;8.690;2022-12-07T07:06:12;4.33;;;1.70;;
13291;SDS011;6714;53.056;8.690;2022-12-07T07:08:56;1.90;;;1.43;;
13291;SDS011;6714;53.056;8.690;2022-12-07T07:11:38;8.50;;;4.20;;
13291;SDS011;6714;53.056;8.690;2022-12-07T07:14:20;4.30;;;1.80;;
13291;SDS011;6714;53.056;8.690;2022-12-07T07:17:02;3.00;;;1.83;;
13291;SDS011;6714;53.056;8.690;2022-12-07T07:19:45;6.30;;;1.97;;
13291;SDS011;6714;53.056;8.690;2022-12-07T07:22:27;3.57;;;1.70;;
13291;SDS011;6714;53.056;8.690;2022-12-07T07:25:10;1.70;;;1.30;;
13291;SDS011;6714;53.056;8.690;2022-12-07T07:27:53;2.80;;;1.57;;
13291;SDS011;6714;53.056;8.690;2022-12-07T07:30:35;3.93;;;1.80;;
13291;SDS011;6714;53.056;8.690;2022-12-07T07:33:17;4.50;;;1.43;;
13291;SDS011;6714;53.056;8.690;2022-12-07T07:35:59;3.20;;;1.53;;
13291;SDS011;6714;53.056;8.690;2022-12-07T07:38:42;3.93;;;1.40;;
13291;SDS011;6714;53.056;8.690;2022-12-07T07:41:25;1.40;;;1.30;;
13291;SDS011;6714;53.056;8.690;2022-12-07T07:44:07;2.20;;;1.40;;
13291;SDS011;6714;53.056;8.690;2022-12-07T07:46:50;3.00;;;1.40;;
13291;SDS011;6714;53.056;8.690;2022-12-07T07:49:32;3.03;;;2.00;;
13291;SDS011;6714;53.056;8.690;2022-12-07T07:52:14;4.37;;;1.80;;
13291;SDS011;6714;53.056;8.690;2022-12-07T07:54:56;1.73;;;1.23;;
13291;SDS011;6714;53.056;8.690;2022-12-07T07:57:40;2.23;;;1.53;;
13291;SDS011;6714;53.056;8.690;2022-12-07T08:00:22;1.87;;;1.30;;
13291;SDS011;6714;53.056;8.690;2022-12-07T08:03:04;4.00;;;1.40;;
13291;SDS011;6714;53.056;8.690;2022-12-07T08:05:46;2.73;;;1.63;;
13291;SDS011;6714;53.056;8.690;2022-12-07T08:08:29;1.40;;;1.23;;
13291;SDS011;6714;53.056;8.690;2022-12-07T08:11:11;3.67;;;1.30;;
13291;SDS011;6714;53.056;8.690;2022-12-07T08:13:55;3.97;;;2.00;;
13291;SDS011;6714;53.056;8.690;2022-12-07T08:16:37;1.93;;;1.43;;
13291;SDS011;6714;53.056;8.690;2022-12-07T08:19:19;4.60;;;2.40;;
13291;SDS011;6714;53.056;8.690;2022-12-07T08:22:01;5.37;;;2.03;;
13291;SDS011;6714;53.056;8.690;2022-12-07T08:24:44;4.70;;;2.20;;
13291;SDS011;6714;53.056;8.690;2022-12-07T08:27:26;4.97;;;1.50;;
13291;SDS011;6714;53.056;8.690;2022-12-07T08:30:10;2.17;;;1.40;;
13291;SDS011;6714;53.056;8.690;2022-12-07T08:32:52;2.07;;;1.43;;
13291;SDS011;6714;53.056;8.690;2022-12-07T08:35:34;1.80;;;1.20;;
13291;SDS011;6714;53.056;8.690;2022-12-07T08:38:17;2.23;;;1.40;;
13291;SDS011;6714;53.056;8.690;2022-12-07T08:40:59;2.60;;;1.20;;
13291;SDS011;6714;53.056;8.690;2022-12-07T08:43:41;3.67;;;1.37;;
13291;SDS011;6714;53.056;8.690;2022-12-07T08:46:25;1.93;;;1.40;;
13291;SDS011;6714;53.056;8.690;2022-12-07T08:49:08;2.73;;;1.03;;
13291;SDS011;6714;53.056;8.690;2022-12-07T08:51:54;2.17;;;1.13;;
13291;SDS011;6714;53.056;8.690;2022-12-07T08:54:37;2.03;;;1.27;;
13291;SDS011;6714;53.056;8.690;2022-12-07T08:57:20;7.33;;;1.60;;
13291;SDS011;6714;53.056;8.690;2022-12-07T09:00:02;1.10;;;1.00;;
13291;SDS011;6714;53.056;8.690;2022-12-07T09:02:46;2.13;;;1.27;;
13291;SDS011;6714;53.056;8.690;2022-12-07T09:05:28;2.87;;;1.40;;
13291;SDS011;6714;53.056;8.690;2022-12-07T09:08:11;4.27;;;1.30;;
13291;SDS011;6714;53.056;8.690;2022-12-07T09:10:53;1.73;;;1.10;;
13291;SDS011;6714;53.056;8.690;2022-12-07T09:13:35;2.97;;;1.30;;
13291;SDS011;6714;53.056;8.690;2022-12-07T09:16:17;1.97;;;1.10;;
13291;SDS011;6714;53.056;8.690;2022-12-07T09:19:01;1.47;;;1.10;;
13291;SDS011;6714;53.056;8.690;2022-12-07T09:21:43;1.50;;;1.30;;
13291;SDS011;6714;53.056;8.690;2022-12-07T09:24:25;2.30;;;1.80;;
13291;SDS011;6714;53.056;8.690;2022-12-07T09:27:08;2.13;;;1.40;;
13291;SDS011;6714;53.056;8.690;2022-12-07T09:29:50;2.87;;;1.53;;
13291;SDS011;6714;53.056;8.690;2022-12-07T09:32:32;3.97;;;1.70;;
13291;SDS011;6714;53.056;8.690;2022-12-07T09:35:16;2.57;;;1.30;;
13291;SDS011;6714;53.056;8.690;2022-12-07T09:37:58;2.17;;;1.93;;
13291;SDS011;6714;53.056;8.690;2022-12-07T09:40:40;2.50;;;1.27;;
13291;SDS011;6714;53.056;8.690;2022-12-07T09:43:24;1.50;;;1.40;;
13291;SDS011;6714;53.056;8.690;2022-12-07T09:46:08;2.27;;;1.30;;
13291;SDS011;6714;53.056;8.690;2022-12-07T09:48:51;4.07;;;1.60;;
13291;SDS011;6714;53.056;8.690;2022-12-07T09:51:35;4.20;;;2.00;;
13291;SDS011;6714;53.056;8.690;2022-12-07T09:54:17;4.90;;;1.70;;
13291;SDS011;6714;53.056;8.690;2022-12-07T09:56:59;4.07;;;1.60;;
13291;SDS011;6714;53.056;8.690;2022-12-07T09:59:41;3.33;;;1.60;;
13291;SDS011;6714;53.056;8.690;2022-12-07T10:02:25;2.83;;;1.30;;
13291;SDS011;6714;53.056;8.690;2022-12-07T10:05:12;3.27;;;1.97;;
13291;SDS011;6714;53.056;8.690;2022-12-07T10:07:56;1.53;;;1.20;;
13291;SDS011;6714;53.056;8.690;2022-12-07T10:10:39;3.20;;;1.50;;
13291;SDS011;6714;53.056;8.690;2022-12-07T10:13:22;3.10;;;1.87;;
13291;SDS011;6714;53.056;8.690;2022-12-07T10:16:05;4.03;;;1.77;;
13291;SDS011;6714;53.056;8.690;2022-12-07T10:18:47;3.33;;;1.70;;
13291;SDS011;6714;53.056;8.690;2022-12-07T10:21:29;4.43;;;1.67;;
13291;SDS011;6714;53.056;8.690;2022-12-07T10:24:14;2.43;;;1.50;;
13291;SDS011;6714;53.056;8.690;2022-12-07T10:26:56;4.10;;;1.40;;
13291;SDS011;6714;53.056;8.690;2022-12-07T10:29:38;4.97;;;1.53;;
13291;SDS011;6714;53.056;8.690;2022-12-07T10:32:28;2.90;;;1.50;;
13291;SDS011;6714;53.056;8.690;2022-12-07T10:35:18;2.53;;;1.30;;
13291;SDS011;6714;53.056;8.690;2022-12-07T10:38:00;3.17;;;1.60;;
13291;SDS011;6714;53.056;8.690;2022-12-07T10:40:44;3.63;;;1.60;;
13291;SDS011;6714;53.056;8.690;2022-12-07T10:43:26;1.57;;;1.10;;
13291;SDS011;6714;53.056;8.690;2022-12-07T10:49:18;3.80;;;1.80;;
13291;SDS011;6714;53.056;8.690;2022-12-07T10:52:05;4.23;;;1.83;;
13291;SDS011;6714;53.056;8.690;2022-12-07T10:54:54;3.77;;;1.77;;
13291;SDS011;6714;53.056;8.690;2022-12-07T10:57:44;3.00;;;1.33;;
13291;SDS011;6714;53.056;8.690;2022-12-07T11:00:28;3.93;;;1.80;;
13291;SDS011;6714;53.056;8.690;2022-12-07T11:03:19;3.73;;;1.60;;
13291;SDS011;6714;53.056;8.690;2022-12-07T11:06:07;2.00;;;1.40;;
13291;SDS011;6714;53.056;8.690;2022-12-07T11:08:56;3.03;;;1.37;;
13291;SDS011;6714;53.056;8.690;2022-12-07T11:11:41;3.90;;;1.50;;
13291;SDS011;6714;53.056;8.690;2022-12-07T11:14:28;2.47;;;1.47;;
13291;SDS011;6714;53.056;8.690;2022-12-07T11:17:13;5.03;;;1.70;;
13291;SDS011;6714;53.056;8.690;2022-12-07T11:20:01;5.43;;;1.50;;
13291;SDS011;6714;53.056;8.690;2022-12-07T11:22:46;3.27;;;2.03;;
13291;SDS011;6714;53.056;8.690;2022-12-07T11:25:31;3.03;;;1.50;;
13291;SDS011;6714;53.056;8.690;2022-12-07T11:28:17;5.07;;;1.93;;
13291;SDS011;6714;53.056;8.690;2022-12-07T11:31:06;4.30;;;1.90;;
13291;SDS011;6714;53.056;8.690;2022-12-07T11:33:52;2.77;;;1.70;;
13291;SDS011;6714;53.056;8.690;2022-12-07T11:36:36;4.50;;;1.77;;
13291;SDS011;6714;53.056;8.690;2022-12-07T11:39:22;4.50;;;2.03;;
13291;SDS011;6714;53.056;8.690;2022-12-07T11:42:06;6.17;;;2.00;;
13291;SDS011;6714;53.056;8.690;2022-12-07T11:44:50;5.67;;;1.50;;
13291;SDS011;6714;53.056;8.690;2022-12-07T11:47:36;2.33;;;1.27;;
13291;SDS011;6714;53.056;8.690;2022-12-07T11:50:25;3.90;;;2.27;;
13291;SDS011;6714;53.056;8.690;2022-12-07T11:53:10;3.97;;;1.80;;
13291;SDS011;6714;53.056;8.690;2022-12-07T11:55:53;3.13;;;1.30;;
13291;SDS011;6714;53.056;8.690;2022-12-07T11:58:44;5.03;;;2.03;;
13291;SDS011;6714;53.056;8.690;2022-12-07T12:01:35;5.67;;;1.73;;
13291;SDS011;6714;53.056;8.690;2022-12-07T12:04:32;1.83;;;1.57;;
13291;SDS011;6714;53.056;8.690;2022-12-07T12:07:17;3.47;;;1.63;;
13291;SDS011;6714;53.056;8.690;2022-12-07T12:10:02;2.63;;;1.90;;
13291;SDS011;6714;53.056;8.690;2022-12-07T12:12:56;6.50;;;2.23;;
13291;SDS011;6714;53.056;8.690;2022-12-07T12:15:46;3.97;;;1.47;;
13291;SDS011;6714;53.056;8.690;2022-12-07T12:18:40;3.60;;;1.30;;
13291;SDS011;6714;53.056;8.690;2022-12-07T12:21:29;3.47;;;1.50;;
13291;SDS011;6714;53.056;8.690;2022-12-07T12:24:14;5.47;;;1.73;;
13291;SDS011;6714;53.056;8.690;2022-12-07T12:26:58;6.40;;;1.77;;
13291;SDS011;6714;53.056;8.690;2022-12-07T12:29:41;2.37;;;1.30;;
13291;SDS011;6714;53.056;8.690;2022-12-07T12:32:28;3.30;;;1.50;;
13291;SDS011;6714;53.056;8.690;2022-12-07T12:35:27;3.33;;;1.30;;
13291;SDS011;6714;53.056;8.690;2022-12-07T12:38:29;5.17;;;1.63;;
13291;SDS011;6714;53.056;8.690;2022-12-07T12:41:21;5.00;;;1.47;;
13291;SDS011;6714;53.056;8.690;2022-12-07T12:47:53;3.73;;;1.73;;
13291;SDS011;6714;53.056;8.690;2022-12-07T12:50:35;3.30;;;1.40;;
13291;SDS011;6714;53.056;8.690;2022-12-07T12:53:21;1.93;;;1.37;;
13291;SDS011;6714;53.056;8.690;2022-12-07T12:56:15;4.70;;;1.43;;
13291;SDS011;6714;53.056;8.690;2022-12-07T12:59:19;4.87;;;1.70;;
13291;SDS011;6714;53.056;8.690;2022-12-07T13:02:09;3.23;;;1.47;;
13291;SDS011;6714;53.056;8.690;2022-12-07T13:04:57;3.27;;;1.60;;
13291;SDS011;6714;53.056;8.690;2022-12-07T13:10:44;3.70;;;1.40;;
13291;SDS011;6714;53.056;8.690;2022-12-07T13:13:34;3.10;;;1.40;;
13291;SDS011;6714;53.056;8.690;2022-12-07T13:22:48;2.80;;;1.43;;
13291;SDS011;6714;53.056;8.690;2022-12-07T13:25:34;4.07;;;1.90;;
13291;SDS011;6714;53.056;8.690;2022-12-07T13:28:18;4.37;;;1.67;;
13291;SDS011;6714;53.056;8.690;2022-12-07T13:31:09;4.87;;;1.80;;
13291;SDS011;6714;53.056;8.690;2022-12-07T13:33:52;4.73;;;1.70;;
13291;SDS011;6714;53.056;8.690;2022-12-07T13:36:36;4.30;;;1.50;;
13291;SDS011;6714;53.056;8.690;2022-12-07T13:39:19;3.57;;;1.53;;
13291;SDS011;6714;53.056;8.690;2022-12-07T13:42:07;3.87;;;1.67;;
13291;SDS011;6714;53.056;8.690;2022-12-07T13:44:51;5.33;;;1.83;;
13291;SDS011;6714;53.056;8.690;2022-12-07T13:47:36;3.63;;;1.50;;
13291;SDS011;6714;53.056;8.690;2022-12-07T13:50:22;3.53;;;1.37;;
13291;SDS011;6714;53.056;8.690;2022-12-07T13:53:10;5.97;;;1.97;;
13291;SDS011;6714;53.056;8.690;2022-12-07T13:55:53;5.10;;;1.40;;
13291;SDS011;6714;53.056;8.690;2022-12-07T13:58:35;3.60;;;1.43;;
13291;SDS011;6714;53.056;8.690;2022-12-07T14:01:18;2.53;;;1.30;;
13291;SDS011;6714;53.056;8.690;2022-12-07T14:06:58;3.73;;;1.70;;
13291;SDS011;6714;53.056;8.690;2022-12-07T14:09:41;3.43;;;1.50;;
13291;SDS011;6714;53.056;8.690;2022-12-07T14:12:24;3.77;;;1.50;;
13291;SDS011;6714;53.056;8.690;2022-12-07T14:15:15;2.37;;;1.17;;
13291;SDS011;6714;53.056;8.690;2022-12-07T14:18:01;1.57;;;1.10;;
13291;SDS011;6714;53.056;8.690;2022-12-07T14:20:44;2.87;;;1.10;;
13291;SDS011;6714;53.056;8.690;2022-12-07T14:23:28;1.90;;;1.17;;
13291;SDS011;6714;53.056;8.690;2022-12-07T14:26:11;3.33;;;1.33;;
13291;SDS011;6714;53.056;8.690;2022-12-07T14:28:59;4.43;;;1.43;;
13291;SDS011;6714;53.056;8.690;2022-12-07T14:31:56;1.63;;;1.33;;
13291;SDS011;6714;53.056;8.690;2022-12-07T14:34:38;2.60;;;1.50;;
13291;SDS011;6714;53.056;8.690;2022-12-07T14:37:20;1.70;;;1.20;;
13291;SDS011;6714;53.056;8.690;2022-12-07T14:40:05;1.70;;;1.13;;
13291;SDS011;6714;53.056;8.690;2022-12-07T14:42:48;3.10;;;1.50;;
13291;SDS011;6714;53.056;8.690;2022-12-07T14:45:31;3.27;;;1.40;;
13291;SDS011;6714;53.056;8.690;2022-12-07T14:48:14;2.80;;;1.40;;
13291;SDS011;6714;53.056;8.690;2022-12-07T14:50:56;3.10;;;1.20;;
13291;SDS011;6714;53.056;8.690;2022-12-07T14:53:39;2.20;;;1.50;;
13291;SDS011;6714;53.056;8.690;2022-12-07T14:56:23;2.00;;;1.23;;
13291;SDS011;6714;53.056;8.690;2022-12-07T14:59:05;1.77;;;1.30;;
13291;SDS011;6714;53.056;8.690;2022-12-07T15:01:47;3.07;;;1.30;;
13291;SDS011;6714;53.056;8.690;2022-12-07T15:04:29;1.97;;;1.10;;
13291;SDS011;6714;53.056;8.690;2022-12-07T15:07:13;2.17;;;1.03;;
13291;SDS011;6714;53.056;8.690;2022-12-07T15:09:57;2.17;;;1.20;;
13291;SDS011;6714;53.056;8.690;2022-12-07T15:12:40;1.80;;;1.30;;
13291;SDS011;6714;53.056;8.690;2022-12-07T15:15:22;3.80;;;1.60;;
13291;SDS011;6714;53.056;8.690;2022-12-07T15:18:05;1.73;;;1.13;;
13291;SDS011;6714;53.056;8.690;2022-12-07T15:20:47;1.97;;;1.60;;
13291;SDS011;6714;53.056;8.690;2022-12-07T15:23:29;1.87;;;1.47;;
13291;SDS011;6714;53.056;8.690;2022-12-07T15:26:12;3.43;;;1.40;;
13291;SDS011;6714;53.056;8.690;2022-12-07T15:28:56;2.60;;;1.50;;
13291;SDS011;6714;53.056;8.690;2022-12-07T15:31:38;2.07;;;1.40;;
13291;SDS011;6714;53.056;8.690;2022-12-07T15:34:20;1.60;;;1.20;;
13291;SDS011;6714;53.056;8.690;2022-12-07T15:37:02;1.77;;;1.10;;
13291;SDS011;6714;53.056;8.690;2022-12-07T15:39:44;2.47;;;1.20;;
13291;SDS011;6714;53.056;8.690;2022-12-07T15:42:26;1.57;;;1.10;;
13291;SDS011;6714;53.056;8.690;2022-12-07T15:45:10;2.03;;;1.30;;
13291;SDS011;6714;53.056;8.690;2022-12-07T15:47:53;1.40;;;1.30;;
13291;SDS011;6714;53.056;8.690;2022-12-07T15:50:36;1.83;;;1.30;;
13291;SDS011;6714;53.056;8.690;2022-12-07T15:53:18;3.00;;;1.50;;
13291;SDS011;6714;53.056;8.690;2022-12-07T15:56:00;1.27;;;1.13;;
13291;SDS011;6714;53.056;8.690;2022-12-07T15:58:43;4.17;;;1.50;;
13291;SDS011;6714;53.056;8.690;2022-12-07T16:01:26;2.77;;;1.60;;
13291;SDS011;6714;53.056;8.690;2022-12-07T16:04:08;3.33;;;1.53;;
13291;SDS011;6714;53.056;8.690;2022-12-07T16:06:51;2.53;;;1.90;;
13291;SDS011;6714;53.056;8.690;2022-12-07T16:09:33;3.03;;;1.50;;
13291;SDS011;6714;53.056;8.690;2022-12-07T16:12:15;3.53;;;1.50;;
13291;SDS011;6714;53.056;8.690;2022-12-07T16:14:58;3.40;;;1.50;;
13291;SDS011;6714;53.056;8.690;2022-12-07T16:17:41;2.40;;;1.70;;
13291;SDS011;6714;53.056;8.690;2022-12-07T16:20:23;1.80;;;1.37;;
13291;SDS011;6714;53.056;8.690;2022-12-07T16:23:06;3.57;;;1.63;;
13291;SDS011;6714;53.056;8.690;2022-12-07T16:25:48;3.30;;;1.80;;
13291;SDS011;6714;53.056;8.690;2022-12-07T16:28:30;4.60;;;2.27;;
13291;SDS011;6714;53.056;8.690;2022-12-07T16:31:13;3.30;;;1.63;;
13291;SDS011;6714;53.056;8.690;2022-12-07T16:33:57;3.87;;;1.70;;
13291;SDS011;6714;53.056;8.690;2022-12-07T16:36:39;3.57;;;2.10;;
13291;SDS011;6714;53.056;8.690;2022-12-07T16:39:21;2.30;;;1.70;;
13291;SDS011;6714;53.056;8.690;2022-12-07T16:42:04;3.40;;;2.10;;
13291;SDS011;6714;53.056;8.690;2022-12-07T16:44:46;4.80;;;2.00;;
13291;SDS011;6714;53.056;8.690;2022-12-07T16:47:29;1.30;;;1.23;;
13291;SDS011;6714;53.056;8.690;2022-12-07T16:50:12;1.70;;;1.60;;
13291;SDS011;6714;53.056;8.690;2022-12-07T16:52:54;1.63;;;1.50;;
13291;SDS011;6714;53.056;8.690;2022-12-07T16:55:37;3.57;;;2.17;;
13291;SDS011;6714;53.056;8.690;2022-12-07T16:58:19;3.27;;;2.40;;
13291;SDS011;6714;53.056;8.690;2022-12-07T17:01:07;3.10;;;1.87;;
13291;SDS011;6714;53.056;8.690;2022-12-07T17:03:50;3.77;;;1.97;;